This is the latest recevied weather packets stored in our database for station/object PY2UTU-WX. If no packets are shown the sender has not sent any weather packets the latest 1 day(s).
| Time | Temp. | Humidity | Pressure | Rain* | Wind** | Luminosity | Snow |
|---|---|---|---|---|---|---|---|
| 1778020045 | 23.89° C | 98% | 927.8 hPa | - | 0 m/s | - | - |
| 1778019145 | 23.89° C | 98% | 927.7 hPa | - | 0 m/s | - | - |
| 1778018245 | 24.44° C | 98% | 927.5 hPa | - | 0 m/s | - | - |
| 1778017345 | 25° C | 98% | 927.4 hPa | - | 0 m/s | - | - |
| 1778016445 | 24.44° C | 98% | 927.4 hPa | - | 0 m/s | - | - |
| 1778015545 | 25° C | 98% | 927.4 hPa | - | 0 m/s | - | - |
| 1778014645 | 25.56° C | 98% | 927.3 hPa | - | 0 m/s | - | - |
| 1778013745 | 25.56° C | 98% | 927.2 hPa | - | 0 m/s | - | - |
| 1778012845 | 26.11° C | 94% | 927 hPa | - | 0 m/s | - | - |
| 1778011945 | 26.11° C | 91% | 926.9 hPa | - | 0 m/s | - | - |
| 1778011045 | 26.11° C | 91% | 926.7 hPa | - | 0 m/s | - | - |
| 1778010145 | 26.11° C | 90% | 926.7 hPa | - | 0 m/s | - | - |
| 1778009245 | 26.67° C | 89% | 926.6 hPa | - | 0 m/s | - | - |
| 1778008345 | 27.22° C | 88% | 926.5 hPa | - | 0 m/s | - | - |
| 1778007445 | 27.78° C | 86% | 926.4 hPa | - | 0 m/s | - | - |
| 1778006545 | 27.78° C | 87% | 926.4 hPa | - | 0 m/s | - | - |
| 1778005645 | 27.78° C | 87% | 926.4 hPa | - | 0 m/s | - | - |
| 1778004745 | 27.78° C | 86% | 926.4 hPa | - | 0 m/s | - | - |
| 1778003845 | 27.78° C | 87% | 926.4 hPa | - | 0 m/s | - | - |
| 1778002945 | 27.78° C | 86% | 926.5 hPa | - | 0 m/s | - | - |
| 1778002045 | 29.44° C | 84% | 926.5 hPa | - | 0 m/s | - | - |
| 1778001145 | 29.44° C | 87% | 926.6 hPa | - | 0 m/s | - | - |
| 1778000245 | 28.33° C | 89% | 926.7 hPa | - | 0 m/s | - | - |
| 1777999345 | 27.22° C | 92% | 926.9 hPa | - | 0 m/s | - | - |
| 1777998445 | 27.78° C | 90% | 927.1 hPa | - | 0 m/s | - | - |
* Rain since midnight (hover to see other rain measurements)
** Current wind speed in m/s (hover to see current wind gust speed)